Etusivu
METAR-TAF:

METAR-TAF

Lentoasemat :

Gafsa, Tunisia

Leveyspiiri: 34-25N, Pituuspiiri: 008-49E, korkeus merenpinnasta: 313 m

Tämänhetkinen sää

Tämä raportti tehtiin 1 tunti ja 12 minuuttia sitten, kello 13.00 UTC
Tuuli 20 kn etelästä/lounaasta puuskistuen 31 kn:hen
Lämpötila 17°C
Kosteus 48%
Ilmanpaine 1005 hPa
Näkyvyys: 8000 m
Hajanaisia pilviä 2600 ft:n korkeudessa

METAR: DTTF 281300Z 21020G31KT 8000 SCT026 17/06 Q1005 NOSIG

Aika: 15:12 (14:12 UTC)

Sääennuste

Tämä raportti tehtiin 2 tuntia ja 12 minuuttia sitten, kello 12.00 UTC
Ennuste voimassa 28. päivästä klo 13 UTC - 28. päivään klo 22 UTC
Tuuli 15 kn etelästä/lounaasta puuskistuen 25 kn:hen
Näkyvyys: 5000 m
Hajanaisia pilviä 2600 ft:n korkeudessa
Todennäköisyys 30% :
Ajoittain
28. päivästä klo 13 UTC - 28. päivään klo 19 UTC
Tuuli 21 kn etelästä/lounaasta puuskistuen 33 kn:hen
Näkyvyys: 2000 m
hiekkaa

TAF: DTTF 281200Z 2813/2822 21015G25KT 5000 SCT026 PROB30 TEMPO 2813/2819 20021G33KT 2000 SA

Säähavainnot ja -ennusteet yli 4000 lentoasemalta (METAR- ja TAF-raportit).

Käytössä olevat sääasemat on merkitty karttaan keltaisilla ja punaisilla pisteillä.

Aseta hiiri pisteen päälle nähdäksesi sääaseman nimen.

Klikkaa sitten nähdäksesi säähavainnot ja -ennusteet.

Kartan vaihtaminen: klikkaa mustalla rastilla varustettuja vihreitä pisteitä, niin voit zoomata sisään; viivalla varustettua vihreää pistettä, niin voit zoomata ulos tai vihreitä nuolia, niin pääset viereisille kartoille.


METAR-TAF: